Time;durP1;ratioP1;P1;durP2;ratioP2;P2;SDS_P1;SDS_P2;PMS_P1;PMS_P2;Temp;Humidity;BMP_temperature;BMP_pressure;BME280_temperature;BME280_humidity;BME280_pressure;Samples;Min_cycle;Max_cycle;Signal;HPM_P1;HPM_P2
2024/01/15 00:02:28;;;;;;;1.63;1.40;;;1.50;98.20;;;;;;5015696;28;20464;-83
2024/01/15 00:05:08;;;;;;;3.00;2.80;;;1.50;98.20;;;;;;5016736;28;20464;-83
2024/01/15 00:10:38;;;;;;;1.70;1.50;;;1.50;98.20;;;;;;4975272;28;20512;-82
2024/01/15 00:13:51;;;;;;;1.70;1.50;;;1.50;98.20;;;;;;5007546;28;21494;-82
2024/01/15 00:16:51;;;;;;;1.70;1.60;;;1.50;98.20;;;;;;5014792;28;20471;-83
2024/01/15 03:19:43;;;;;;;1.60;1.50;;;1.60;98.20;;;;;;4877306;29;20481;-85
2024/01/15 03:22:16;;;;;;;1.60;1.40;;;1.60;98.20;;;;;;4955670;29;20477;-85
2024/01/15 03:24:43;;;;;;;1.70;1.50;;;1.60;98.20;;;;;;4958873;29;20503;-84
2024/01/15 03:27:10;;;;;;;5.03;4.70;;;1.60;98.20;;;;;;4955388;29;20469;-83
2024/01/15 03:29:39;;;;;;;1.63;1.40;;;1.60;98.20;;;;;;4956146;28;21297;-84
2024/01/15 03:32:09;;;;;;;1.63;1.50;;;1.60;98.20;;;;;;4952145;29;20488;-84
2024/01/15 03:34:38;;;;;;;1.70;1.50;;;1.60;98.20;;;;;;4955266;29;20463;-84
2024/01/15 03:37:22;;;;;;;1.60;1.40;;;1.60;98.20;;;;;;4954805;29;20802;-83
2024/01/15 03:49:45;;;;;;;1.67;1.43;;;1.70;98.20;;;;;;5091265;23;20501;-84
2024/01/15 03:52:22;;;;;;;1.63;1.40;;;1.70;98.20;;;;;;4972699;28;20493;-86
2024/01/15 03:55:09;;;;;;;1.70;1.50;;;1.70;98.20;;;;;;4971933;28;20476;-87
2024/01/15 04:03:00;;;;;;;1.80;1.70;;;1.70;98.20;;;;;;5030865;23;20508;-85
2024/01/15 04:05:29;;;;;;;1.60;1.40;;;1.70;98.20;;;;;;4979710;28;20462;-84
2024/01/15 04:18:13;;;;;;;1.60;1.40;;;1.70;98.20;;;;;;4900003;29;20498;-84
2024/01/15 04:21:24;;;;;;;1.70;1.60;;;1.70;98.20;;;;;;4898139;29;20464;-86
2024/01/15 04:23:52;;;;;;;1.67;1.50;;;1.70;98.20;;;;;;4873813;29;20461;-83
2024/01/15 04:26:19;;;;;;;1.70;1.60;;;1.70;98.20;;;;;;4900698;29;20538;-85
2024/01/15 04:28:46;;;;;;;1.60;1.40;;;1.70;98.20;;;;;;4920642;28;20505;-83
2024/01/15 04:31:22;;;;;;;1.63;1.40;;;1.70;98.20;;;;;;4973769;28;20576;-84
2024/01/15 04:33:49;;;;;;;3.70;3.50;;;1.70;98.20;;;;;;4969055;28;20527;-83
2024/01/15 04:36:16;;;;;;;1.60;1.40;;;1.70;98.20;;;;;;4971693;28;20549;-84
2024/01/15 04:42:06;;;;;;;1.63;1.40;;;1.70;98.20;;;;;;4965549;28;20461;-85
2024/01/15 04:44:52;;;;;;;1.63;1.43;;;1.70;98.20;;;;;;4980103;28;20551;-86
2024/01/15 04:47:19;;;;;;;1.60;1.40;;;1.70;98.20;;;;;;4967868;28;20546;-85
2024/01/15 04:49:46;;;;;;;1.77;1.67;;;1.70;98.20;;;;;;4971575;28;21241;-85
2024/01/15 04:52:13;;;;;;;1.70;1.50;;;1.70;98.20;;;;;;4973243;28;20493;-85
2024/01/15 04:54:43;;;;;;;1.67;1.50;;;1.70;98.20;;;;;;4979713;28;20914;-85
2024/01/15 04:57:13;;;;;;;1.70;1.50;;;1.70;98.20;;;;;;4967887;28;20470;-85
2024/01/15 04:59:43;;;;;;;1.63;1.40;;;1.70;98.20;;;;;;4972162;28;20462;-85
2024/01/15 05:02:16;;;;;;;1.67;1.50;;;1.70;98.20;;;;;;4979530;28;20466;-86
2024/01/15 05:04:44;;;;;;;1.60;1.50;;;1.70;98.20;;;;;;4980741;28;21027;-84
2024/01/15 05:07:12;;;;;;;1.70;1.60;;;1.80;98.20;;;;;;4978531;28;20557;-85
2024/01/15 05:09:39;;;;;;;1.60;1.40;;;1.80;98.20;;;;;;4977105;28;20489;-84
2024/01/15 05:12:06;;;;;;;1.67;1.40;;;1.80;98.20;;;;;;4975451;28;20526;-85
2024/01/15 05:14:39;;;;;;;1.63;1.40;;;1.80;98.20;;;;;;4970812;28;20880;-85
2024/01/15 05:17:06;;;;;;;1.60;1.40;;;1.80;98.20;;;;;;4975863;28;20524;-84
2024/01/15 05:19:33;;;;;;;1.67;1.50;;;1.80;98.20;;;;;;4969263;28;20517;-84
2024/01/15 05:22:00;;;;;;;1.63;1.40;;;1.80;98.20;;;;;;4974313;28;20529;-85
2024/01/15 05:24:27;;;;;;;1.63;1.50;;;1.80;98.20;;;;;;4969302;28;20976;-85
2024/01/15 05:26:54;;;;;;;1.60;1.40;;;1.80;98.20;;;;;;4979153;28;20520;-83
2024/01/15 05:29:21;;;;;;;1.70;1.50;;;1.80;98.20;;;;;;4984084;28;20493;-85
2024/01/15 05:31:49;;;;;;;1.63;1.50;;;1.80;98.20;;;;;;4971680;28;20486;-85
2024/01/15 05:34:16;;;;;;;1.60;1.40;;;1.80;98.20;;;;;;4970611;28;20536;-85
2024/01/15 05:36:43;;;;;;;1.70;1.50;;;1.80;98.20;;;;;;4973477;28;20542;-84
2024/01/15 05:39:14;;;;;;;1.63;1.40;;;1.80;98.20;;;;;;4976038;28;20485;-85
2024/01/15 05:41:41;;;;;;;1.63;1.40;;;1.80;98.20;;;;;;4974949;28;20580;-84
2024/01/15 05:44:11;;;;;;;1.60;1.40;;;1.80;98.20;;;;;;4975213;28;20545;-85
2024/01/15 05:46:37;;;;;;;1.63;1.50;;;1.80;98.20;;;;;;4980429;28;20502;-85
2024/01/15 05:49:06;;;;;;;1.60;1.40;;;1.80;98.20;;;;;;4976253;28;20510;-85
2024/01/15 05:52:03;;;;;;;1.63;1.50;;;1.80;98.20;;;;;;4959261;28;20601;-84
2024/01/15 05:54:31;;;;;;;1.67;1.50;;;1.80;98.20;;;;;;4978083;28;20520;-85
2024/01/15 05:56:58;;;;;;;1.60;1.40;;;1.80;98.20;;;;;;4983545;28;20464;-85
2024/01/15 05:59:25;;;;;;;1.67;1.50;;;1.80;98.20;;;;;;4980108;28;21124;-85
2024/01/15 06:01:52;;;;;;;1.60;1.40;;;1.80;98.20;;;;;;4982651;28;20656;-85
2024/01/15 06:04:23;;;;;;;1.73;1.63;;;1.80;98.20;;;;;;4988961;28;20504;-85
2024/01/15 06:06:50;;;;;;;1.67;1.43;;;1.80;98.20;;;;;;4988701;28;20520;-84
2024/01/15 06:09:20;;;;;;;1.67;1.50;;;1.80;98.20;;;;;;4982587;28;20480;-85
2024/01/15 06:11:53;;;;;;;1.63;1.40;;;1.80;98.20;;;;;;4981029;28;20569;-84
2024/01/15 06:14:23;;;;;;;1.70;1.50;;;1.80;98.20;;;;;;4977538;28;20904;-84
2024/01/15 06:16:53;;;;;;;1.70;1.50;;;1.80;98.20;;;;;;4979607;28;20501;-86
2024/01/15 06:19:26;;;;;;;1.60;1.50;;;1.80;98.20;;;;;;4985656;28;20477;-85
2024/01/15 06:25:47;;;;;;;1.60;1.40;;;1.90;98.20;;;;;;4982398;28;20421;-87
2024/01/15 06:36:16;;;;;;;1.60;1.50;;;1.90;98.20;;;;;;5841028;23;20504;-79
2024/01/15 06:38:44;;;;;;;3.10;2.90;;;1.90;98.20;;;;;;4969685;28;21150;-79
2024/01/15 06:41:15;;;;;;;1.67;1.50;;;1.90;98.20;;;;;;4974274;28;20502;-79
2024/01/15 06:43:42;;;;;;;1.60;1.40;;;1.90;98.20;;;;;;4972576;28;20473;-80
2024/01/15 06:46:33;;;;;;;1.67;1.50;;;1.90;98.20;;;;;;4969860;28;20482;-79
2024/01/15 06:49:05;;;;;;;1.60;1.40;;;1.90;98.20;;;;;;4950537;29;20479;-80
2024/01/15 06:51:31;;;;;;;1.60;1.40;;;1.90;98.20;;;;;;4952776;29;20498;-79
2024/01/15 06:54:32;;;;;;;;;;;;;;;;;;;;;
2024/01/15 06:57:25;;;;;;;1.70;1.50;;;1.90;98.20;;;;;;5141476;23;20576;-80
2024/01/15 07:03:28;;;;;;;1.60;1.40;;;1.80;98.20;;;;;;4968238;28;20704;-80
2024/01/15 07:05:59;;;;;;;1.70;1.50;;;1.80;98.20;;;;;;4982304;28;20487;-80
2024/01/15 07:14:47;;;;;;;1.70;1.50;;;1.90;98.20;;;;;;4972990;28;20534;-79
2024/01/15 07:17:40;;;;;;;1.60;1.40;;;1.90;98.20;;;;;;4973726;28;20509;-78
2024/01/15 07:20:15;;;;;;;1.67;1.47;;;1.90;98.20;;;;;;4983258;28;20920;-78
2024/01/15 07:23:05;;;;;;;;;;;;;;;;;;;;;
2024/01/15 07:25:55;;;;;;;2.53;2.33;;;1.90;98.20;;;;;;4962820;28;20465;-80
2024/01/15 07:28:52;;;;;;;1.70;1.40;;;1.90;98.20;;;;;;4957192;28;20499;-79
2024/01/15 07:36:55;;;;;;;1.63;1.40;;;1.90;98.20;;;;;;4961005;28;20489;-77
2024/01/15 07:39:28;;;;;;;1.60;1.47;;;1.90;98.20;;;;;;4957703;28;20473;-78
2024/01/15 07:42:01;;;;;;;1.70;1.50;;;1.90;98.20;;;;;;4965688;28;20606;-82
2024/01/15 07:44:30;;;;;;;1.60;1.43;;;1.90;98.20;;;;;;4955326;28;20510;-84
2024/01/15 07:47:02;;;;;;;1.63;1.40;;;1.90;98.20;;;;;;4953337;29;20474;-81
2024/01/15 07:49:30;;;;;;;1.70;1.60;;;1.90;98.20;;;;;;4954851;29;20499;-84
2024/01/15 07:51:58;;;;;;;1.60;1.40;;;1.90;98.20;;;;;;4953263;29;20498;-85
2024/01/15 07:54:25;;;;;;;1.70;1.60;;;1.90;98.20;;;;;;4951362;29;20955;-84
2024/01/15 07:57:03;;;;;;;1.70;1.50;;;1.90;98.20;;;;;;4955435;29;20473;-83
2024/01/15 07:59:30;;;;;;;1.70;1.50;;;2.00;98.20;;;;;;4955048;29;20471;-84
2024/01/15 08:01:59;;;;;;;1.70;1.57;;;2.00;98.20;;;;;;4954118;29;20754;-84
2024/01/15 08:04:26;;;;;;;9.70;8.70;;;2.00;98.20;;;;;;4956424;29;20458;-85
2024/01/15 08:06:54;;;;;;;1.70;1.53;;;2.00;98.20;;;;;;4954458;29;20486;-83
2024/01/15 08:09:27;;;;;;;2.07;1.87;;;2.00;98.20;;;;;;4955141;29;20521;-84
2024/01/15 08:11:55;;;;;;;1.60;1.40;;;2.00;98.20;;;;;;4951342;28;21268;-85
2024/01/15 08:14:22;;;;;;;1.60;1.40;;;2.00;98.20;;;;;;4948337;29;20522;-84
2024/01/15 08:16:49;;;;;;;1.63;1.40;;;2.00;98.20;;;;;;4955003;28;20473;-84
2024/01/15 08:19:16;;;;;;;1.70;1.60;;;2.00;98.20;;;;;;4957776;28;20462;-85
2024/01/15 08:21:43;;;;;;;1.67;1.40;;;2.00;98.20;;;;;;4952315;29;20603;-84
2024/01/15 08:24:10;;;;;;;1.70;1.60;;;2.10;98.20;;;;;;4955104;29;20463;-85
2024/01/15 08:26:38;;;;;;;1.60;1.40;;;2.10;98.20;;;;;;4950562;28;20558;-82
2024/01/15 08:29:15;;;;;;;;;;;;;;;;;;;;;
2024/01/15 08:31:42;;;;;;;1.70;1.57;;;2.10;98.20;;;;;;4955461;29;20495;-82
2024/01/15 08:34:09;;;;;;;1.70;1.60;;;2.10;98.20;;;;;;4954342;29;20481;-82
2024/01/15 08:36:36;;;;;;;1.70;1.50;;;2.00;98.20;;;;;;4958806;29;20485;-83
2024/01/15 08:39:03;;;;;;;1.60;1.40;;;2.00;98.20;;;;;;4953741;29;20512;-85
2024/01/15 08:41:32;;;;;;;1.67;1.50;;;2.00;98.20;;;;;;4957266;28;20483;-83
2024/01/15 08:44:08;;;;;;;6.23;5.83;;;2.00;98.20;;;;;;4951510;28;20552;-82
2024/01/15 08:46:36;;;;;;;1.60;1.40;;;1.90;98.20;;;;;;4951302;29;20521;-81
2024/01/15 08:49:17;;;;;;;1.60;1.40;;;1.90;98.20;;;;;;4952546;28;20491;-83
2024/01/15 08:51:50;;;;;;;1.70;1.50;;;1.90;98.20;;;;;;4953610;28;20455;-82
2024/01/15 08:54:18;;;;;;;1.70;1.60;;;1.90;98.20;;;;;;4951691;29;20451;-82
2024/01/15 08:56:45;;;;;;;1.67;1.50;;;1.80;98.20;;;;;;4951500;29;20551;-84
2024/01/15 08:59:25;;;;;;;3.97;3.67;;;1.80;98.20;;;;;;4952868;29;20516;-82
2024/01/15 09:02:09;;;;;;;1.67;1.40;;;1.80;98.20;;;;;;4951595;29;20530;-82
2024/01/15 09:04:58;;;;;;;1.70;1.50;;;1.70;98.20;;;;;;4950925;29;20979;-85
2024/01/15 09:07:53;;;;;;;1.63;1.40;;;1.70;98.20;;;;;;4949727;29;20470;-85
2024/01/15 09:10:33;;;;;;;1.70;1.50;;;1.70;98.20;;;;;;4954812;28;20470;-84
2024/01/15 09:13:00;;;;;;;1.70;1.60;;;1.70;98.20;;;;;;4951203;28;20486;-83
2024/01/15 09:15:42;;;;;;;2.20;2.00;;;1.70;98.20;;;;;;4955170;29;20467;-84
2024/01/15 09:18:12;;;;;;;1.60;1.50;;;1.70;98.20;;;;;;4951318;29;20495;-84
2024/01/15 09:24:49;;;;;;;1.60;1.40;;;1.70;98.20;;;;;;4859664;29;20519;-83
2024/01/15 09:28:42;;;;;;;1.70;1.50;;;1.70;98.20;;;;;;4858774;29;20542;-83
2024/01/15 09:47:57;;;;;;;1.60;1.40;;;1.70;98.20;;;;;;3987649;23;20484;-85
2024/01/15 09:50:30;;;;;;;1.67;1.50;;;1.70;98.20;;;;;;4979571;28;20827;-85
2024/01/15 09:52:58;;;;;;;1.70;1.40;;;1.70;98.20;;;;;;4970138;28;20553;-86
2024/01/15 09:55:26;;;;;;;1.63;1.40;;;1.70;98.20;;;;;;4964490;28;20500;-84
2024/01/15 09:57:54;;;;;;;1.70;1.50;;;1.80;98.20;;;;;;4967527;28;20953;-84
2024/01/15 10:00:24;;;;;;;1.70;1.60;;;1.80;98.20;;;;;;4966631;28;20517;-83
2024/01/15 10:02:53;;;;;;;1.70;1.50;;;1.90;98.20;;;;;;4965238;28;20510;-84
2024/01/15 10:05:20;;;;;;;1.60;1.40;;;1.90;98.20;;;;;;4968116;28;20585;-84
2024/01/15 10:07:49;;;;;;;1.60;1.40;;;1.90;98.20;;;;;;4960813;29;20462;-84
2024/01/15 10:10:19;;;;;;;1.60;1.40;;;1.90;98.20;;;;;;4965212;28;20465;-82
2024/01/15 10:12:46;;;;;;;1.70;1.60;;;1.90;98.20;;;;;;4966468;28;20574;-82
2024/01/15 10:15:13;;;;;;;1.60;1.40;;;1.90;98.20;;;;;;4960026;29;20466;-82
2024/01/15 10:17:41;;;;;;;1.67;1.40;;;1.90;98.20;;;;;;4961090;28;20537;-82
2024/01/15 10:20:19;;;;;;;1.67;1.43;;;1.90;98.20;;;;;;4960217;28;20468;-84
2024/01/15 10:22:47;;;;;;;1.70;1.40;;;1.90;98.20;;;;;;4962248;28;20486;-82
2024/01/15 10:25:23;;;;;;;1.70;1.50;;;1.90;98.20;;;;;;4963304;29;20467;-86
2024/01/15 10:28:01;;;;;;;1.63;1.40;;;1.90;98.20;;;;;;4972241;28;20478;-84
2024/01/15 10:30:28;;;;;;;1.70;1.50;;;1.90;98.20;;;;;;4966181;28;20465;-84
2024/01/15 10:33:02;;;;;;;1.60;1.40;;;1.90;98.20;;;;;;4956640;28;20498;-84
2024/01/15 10:35:31;;;;;;;1.70;1.43;;;1.90;98.20;;;;;;4963152;28;20505;-82
2024/01/15 10:37:59;;;;;;;1.60;1.50;;;2.00;98.20;;;;;;4972345;28;20455;-85
2024/01/15 10:40:28;;;;;;;1.60;1.40;;;2.00;98.20;;;;;;4960525;28;20458;-81
2024/01/15 10:43:03;;;;;;;1.70;1.43;;;2.00;98.20;;;;;;4960393;28;20915;-81
2024/01/15 10:45:39;;;;;;;1.60;1.40;;;2.00;98.20;;;;;;4960921;28;20513;-82
2024/01/15 10:48:08;;;;;;;1.70;1.60;;;2.00;98.20;;;;;;4962745;28;20525;-83
2024/01/15 10:50:40;;;;;;;1.60;1.40;;;2.00;98.20;;;;;;4957728;29;20882;-82
2024/01/15 10:53:09;;;;;;;1.70;1.53;;;2.10;98.20;;;;;;4958393;28;20491;-83
2024/01/15 10:55:38;;;;;;;1.70;1.40;;;2.10;98.20;;;;;;4959750;28;20838;-83
2024/01/15 10:58:05;;;;;;;1.70;1.57;;;2.20;98.20;;;;;;4957721;29;20462;-84
2024/01/15 11:00:32;;;;;;;1.60;1.40;;;2.20;98.20;;;;;;4961247;28;20469;-82
2024/01/15 11:03:02;;;;;;;2.33;2.13;;;2.20;98.20;;;;;;4958760;28;20474;-83
2024/01/15 11:05:29;;;;;;;1.70;1.50;;;2.30;98.20;;;;;;4962983;28;20469;-82
2024/01/15 11:08:00;;;;;;;1.60;1.40;;;2.30;98.20;;;;;;4962188;28;20467;-83
2024/01/15 11:10:40;;;;;;;1.70;1.40;;;2.30;98.20;;;;;;4956637;29;20462;-82
2024/01/15 11:13:10;;;;;;;1.63;1.50;;;2.40;98.20;;;;;;4962718;28;20497;-82
2024/01/15 11:15:59;;;;;;;1.70;1.47;;;2.50;98.20;;;;;;4955765;28;20479;-82
2024/01/15 11:18:28;;;;;;;1.60;1.40;;;2.50;98.20;;;;;;4954769;29;20463;-83
2024/01/15 11:21:21;;;;;;;1.70;1.50;;;2.50;98.20;;;;;;4962728;28;20468;-82
2024/01/15 11:23:51;;;;;;;1.70;1.40;;;2.60;98.20;;;;;;4957610;28;20498;-81
2024/01/15 11:26:32;;;;;;;1.60;1.40;;;2.60;98.20;;;;;;4956404;29;20467;-82
2024/01/15 11:29:00;;;;;;;1.63;1.40;;;2.70;98.20;;;;;;4951888;28;20455;-82
2024/01/15 11:31:29;;;;;;;1.70;1.40;;;2.70;98.20;;;;;;4953459;29;20473;-81
2024/01/15 11:33:56;;;;;;;1.60;1.30;;;2.70;98.20;;;;;;4957441;28;20497;-80
2024/01/15 11:36:22;;;;;;;1.67;1.40;;;2.70;98.20;;;;;;4961206;28;20909;-82
2024/01/15 11:38:51;;;;;;;1.70;1.40;;;2.70;98.20;;;;;;4957665;28;20459;-80
2024/01/15 11:41:17;;;;;;;1.70;1.40;;;2.70;98.20;;;;;;4956771;28;20493;-81
2024/01/15 11:43:44;;;;;;;1.60;1.40;;;2.70;98.20;;;;;;4953327;28;20482;-80
2024/01/15 11:46:12;;;;;;;1.63;1.30;;;2.70;98.20;;;;;;4952842;28;20466;-78
2024/01/15 11:48:45;;;;;;;1.63;1.30;;;2.80;98.20;;;;;;4954101;28;20472;-81
2024/01/15 11:51:13;;;;;;;1.70;1.40;;;2.80;98.20;;;;;;4952542;28;20486;-80
2024/01/15 11:53:45;;;;;;;1.67;1.37;;;2.80;98.20;;;;;;4950404;28;20486;-81
2024/01/15 11:56:17;;;;;;;1.70;1.40;;;2.90;98.20;;;;;;4950016;29;20494;-82
2024/01/15 11:58:44;;;;;;;1.70;1.50;;;3.00;98.20;;;;;;4951318;29;20463;-80
2024/01/15 12:01:12;;;;;;;1.70;1.50;;;3.10;98.20;;;;;;4951516;29;20463;-79
2024/01/15 12:03:38;;;;;;;1.67;1.30;;;3.20;98.20;;;;;;4950773;28;20541;-81
2024/01/15 12:06:07;;;;;;;1.60;1.30;;;3.30;98.20;;;;;;4951346;28;20463;-77
2024/01/15 12:08:34;;;;;;;1.60;1.30;;;3.40;98.20;;;;;;4950566;29;20466;-81
2024/01/15 12:11:02;;;;;;;1.67;1.30;;;3.40;98.20;;;;;;4947646;29;20465;-80
2024/01/15 12:13:30;;;;;;;1.70;1.50;;;3.40;98.20;;;;;;4950426;29;20527;-81
2024/01/15 12:15:57;;;;;;;1.60;1.30;;;3.40;98.20;;;;;;4952282;29;20463;-83
2024/01/15 12:18:26;;;;;;;1.60;1.30;;;3.40;98.20;;;;;;4951965;29;20489;-82
2024/01/15 12:20:55;;;;;;;1.67;1.40;;;3.50;98.20;;;;;;4956230;29;20458;-82
2024/01/15 12:23:22;;;;;;;1.70;1.40;;;3.50;98.20;;;;;;4950960;28;20490;-82
2024/01/15 12:25:49;;;;;;;1.60;1.30;;;3.50;98.20;;;;;;4948661;28;20478;-83
2024/01/15 12:28:16;;;;;;;1.63;1.40;;;3.40;98.20;;;;;;4948333;28;20973;-82
2024/01/15 12:30:49;;;;;;;1.63;1.33;;;3.40;98.20;;;;;;4947684;28;20467;-83
2024/01/15 12:33:15;;;;;;;1.80;1.70;;;3.30;98.20;;;;;;4948129;28;20538;-83
2024/01/15 12:35:42;;;;;;;1.60;1.30;;;3.20;98.20;;;;;;4947585;28;20467;-83
2024/01/15 12:38:09;;;;;;;1.60;1.30;;;3.20;98.20;;;;;;4946956;28;20922;-81
2024/01/15 12:40:36;;;;;;;1.60;1.33;;;3.10;98.20;;;;;;4949005;28;20463;-82
2024/01/15 12:43:03;;;;;;;1.60;1.43;;;3.10;98.20;;;;;;4949518;28;21202;-82
2024/01/15 12:45:30;;;;;;;1.70;1.60;;;3.00;98.20;;;;;;4950492;28;20463;-81
2024/01/15 12:47:58;;;;;;;1.60;1.40;;;3.00;98.20;;;;;;4950826;28;20537;-82
2024/01/15 12:50:26;;;;;;;1.63;1.30;;;3.00;98.20;;;;;;4948444;28;20561;-82
2024/01/15 12:52:53;;;;;;;1.70;1.40;;;3.00;98.20;;;;;;4952271;28;20487;-83
2024/01/15 12:55:19;;;;;;;1.70;1.40;;;3.00;98.20;;;;;;4952201;28;20455;-82
2024/01/15 12:57:46;;;;;;;1.70;1.40;;;3.00;98.20;;;;;;4951646;28;20830;-83
2024/01/15 13:00:14;;;;;;;1.67;1.43;;;3.00;98.20;;;;;;4950457;29;21000;-80
2024/01/15 13:02:42;;;;;;;1.70;1.40;;;3.00;98.20;;;;;;4945256;28;20498;-82
2024/01/15 13:05:11;;;;;;;1.70;1.50;;;3.00;98.20;;;;;;4953689;29;20477;-79
2024/01/15 13:07:38;;;;;;;1.67;1.37;;;3.00;98.20;;;;;;4960504;29;20474;-81
2024/01/15 13:10:05;;;;;;;1.63;1.37;;;3.00;98.20;;;;;;4958980;28;20989;-80
2024/01/15 13:12:32;;;;;;;1.60;1.30;;;3.10;98.20;;;;;;4959052;28;20543;-82
2024/01/15 13:14:59;;;;;;;1.60;1.30;;;3.10;98.20;;;;;;4953265;28;20889;-81
2024/01/15 13:17:26;;;;;;;1.63;1.50;;;3.10;98.20;;;;;;4956072;29;20522;-82
2024/01/15 13:19:53;;;;;;;1.63;1.30;;;3.10;98.20;;;;;;4962218;29;20546;-81
2024/01/15 13:22:29;;;;;;;1.60;1.30;;;3.10;98.20;;;;;;4951707;28;20501;-80
2024/01/15 13:24:56;;;;;;;1.67;1.33;;;3.10;98.20;;;;;;4957267;28;20485;-81
2024/01/15 13:27:23;;;;;;;1.67;1.47;;;3.10;98.20;;;;;;4954711;28;20459;-81
2024/01/15 13:29:50;;;;;;;1.60;1.30;;;3.20;98.20;;;;;;4952111;28;20469;-80
2024/01/15 13:32:23;;;;;;;1.60;1.30;;;3.20;98.20;;;;;;4953172;28;21032;-82
2024/01/15 13:34:50;;;;;;;1.67;1.40;;;3.20;98.20;;;;;;4942980;28;20499;-81
2024/01/15 13:37:17;;;;;;;1.60;1.30;;;3.20;98.20;;;;;;4954100;28;20542;-81
2024/01/15 13:39:45;;;;;;;1.63;1.53;;;3.20;98.20;;;;;;4947682;28;20734;-81
2024/01/15 13:42:15;;;;;;;1.60;1.40;;;3.20;98.20;;;;;;4954904;28;21013;-82
2024/01/15 13:44:42;;;;;;;1.60;1.30;;;3.20;98.20;;;;;;4957513;29;20717;-79
2024/01/15 13:47:13;;;;;;;1.63;1.40;;;3.20;98.20;;;;;;4960351;29;20470;-82
2024/01/15 13:49:40;;;;;;;1.70;1.40;;;3.20;98.20;;;;;;4955939;29;20471;-82
2024/01/15 13:52:07;;;;;;;1.63;1.40;;;3.10;98.20;;;;;;4957881;28;20495;-83
2024/01/15 13:54:33;;;;;;;1.67;1.40;;;3.10;98.20;;;;;;4952869;29;20491;-81
2024/01/15 13:57:01;;;;;;;1.70;1.43;;;3.00;98.20;;;;;;4952860;29;20458;-84
2024/01/15 13:59:28;;;;;;;1.70;1.40;;;3.00;98.20;;;;;;4955847;29;20459;-81
2024/01/15 14:01:55;;;;;;;1.60;1.30;;;2.90;98.20;;;;;;4954636;29;20978;-83
2024/01/15 14:04:22;;;;;;;1.60;1.40;;;2.90;98.20;;;;;;4957985;29;20502;-79
2024/01/15 14:06:48;;;;;;;1.63;1.40;;;2.90;98.20;;;;;;4958129;29;20458;-81
2024/01/15 14:09:19;;;;;;;1.60;1.30;;;2.90;98.20;;;;;;4957102;29;20469;-81
2024/01/15 14:11:45;;;;;;;1.70;1.57;;;2.80;98.20;;;;;;4956239;28;20477;-79
2024/01/15 14:14:14;;;;;;;1.67;1.40;;;2.80;98.20;;;;;;4957815;29;20735;-82
2024/01/15 14:16:40;;;;;;;1.70;1.50;;;2.70;98.20;;;;;;4956281;28;20523;-82
2024/01/15 14:19:09;;;;;;;1.60;1.40;;;2.70;98.20;;;;;;4960181;28;20477;-80
2024/01/15 14:21:36;;;;;;;1.70;1.40;;;2.70;98.20;;;;;;4958290;29;20458;-82
2024/01/15 14:24:03;;;;;;;1.60;1.30;;;2.70;98.20;;;;;;4961223;29;20462;-83
2024/01/15 14:26:30;;;;;;;1.70;1.53;;;2.70;98.20;;;;;;4960309;29;20463;-83
2024/01/15 14:28:58;;;;;;;2.03;1.83;;;2.80;98.20;;;;;;4961725;29;20464;-78
2024/01/15 14:31:28;;;;;;;1.70;1.40;;;2.80;98.20;;;;;;4960551;29;20566;-81
2024/01/15 14:33:55;;;;;;;1.70;1.60;;;2.80;98.20;;;;;;4963868;28;20487;-82
2024/01/15 14:36:29;;;;;;;1.70;1.50;;;2.80;98.20;;;;;;5101660;23;21175;-85
2024/01/15 14:38:56;;;;;;;1.60;1.40;;;2.80;98.20;;;;;;4975723;28;20604;-85
2024/01/15 14:41:26;;;;;;;1.60;1.40;;;2.80;98.20;;;;;;4975968;28;20504;-86
2024/01/15 14:44:08;;;;;;;1.60;1.30;;;2.80;98.20;;;;;;4973769;28;20470;-85
2024/01/15 14:46:37;;;;;;;1.67;1.43;;;2.70;98.20;;;;;;4968945;28;20686;-86
2024/01/15 14:49:04;;;;;;;1.70;1.50;;;2.70;98.20;;;;;;4960019;28;20470;-86
2024/01/15 14:51:31;;;;;;;1.70;1.47;;;2.70;98.20;;;;;;4966358;28;20552;-86
2024/01/15 14:53:58;;;;;;;1.70;1.57;;;2.70;98.20;;;;;;4962037;28;20481;-86
2024/01/15 14:56:58;;;;;;;1.70;1.50;;;2.70;98.20;;;;;;4968502;28;20489;-88
2024/01/15 14:59:25;;;;;;;1.70;1.50;;;2.70;98.20;;;;;;4904159;28;20506;-86
2024/01/15 15:01:53;;;;;;;1.67;1.40;;;2.60;98.20;;;;;;4968699;28;20481;-86
2024/01/15 15:04:25;;;;;;;1.60;1.40;;;2.60;98.20;;;;;;4960899;28;20470;-86
2024/01/15 15:06:53;;;;;;;1.67;1.40;;;2.60;98.20;;;;;;4970220;28;20624;-86
2024/01/15 15:09:22;;;;;;;1.70;1.40;;;2.60;98.20;;;;;;4969067;28;20474;-86
2024/01/15 15:11:49;;;;;;;1.70;1.50;;;2.60;98.20;;;;;;4964670;28;20470;-86
2024/01/15 15:14:16;;;;;;;1.70;1.50;;;2.60;98.20;;;;;;4968164;28;21035;-86
2024/01/15 15:16:43;;;;;;;1.63;1.40;;;2.50;98.20;;;;;;4968462;28;21012;-86
2024/01/15 15:19:14;;;;;;;1.60;1.40;;;2.50;98.20;;;;;;4965705;28;20560;-86
2024/01/15 15:21:41;;;;;;;1.70;1.60;;;2.40;98.20;;;;;;4970664;28;20980;-86
2024/01/15 15:24:09;;;;;;;1.60;1.37;;;2.40;98.20;;;;;;4963919;28;20467;-86
2024/01/15 15:34:27;;;;;;;1.63;1.37;;;2.20;98.20;;;;;;5191555;23;20531;-85
2024/01/15 15:36:54;;;;;;;1.70;1.50;;;2.10;98.20;;;;;;4992983;28;20493;-83
2024/01/15 15:42:26;;;;;;;1.70;1.50;;;2.10;98.20;;;;;;4956535;28;20473;-85
2024/01/15 15:44:54;;;;;;;1.63;1.40;;;2.10;98.20;;;;;;4960370;28;20481;-83
2024/01/15 15:47:21;;;;;;;1.70;1.60;;;2.10;98.20;;;;;;4960450;28;20494;-83
2024/01/15 15:49:49;;;;;;;1.70;1.40;;;2.00;98.20;;;;;;4970810;28;20485;-83
2024/01/15 15:52:16;;;;;;;1.70;1.60;;;2.00;98.20;;;;;;4968007;28;20493;-83
2024/01/15 15:54:43;;;;;;;1.67;1.47;;;2.00;98.20;;;;;;4979921;28;20577;-84
2024/01/15 15:57:10;;;;;;;1.60;1.40;;;1.90;98.20;;;;;;4971296;28;20491;-83
2024/01/15 15:59:37;;;;;;;1.70;1.60;;;1.90;98.20;;;;;;4973356;28;20865;-85
2024/01/15 16:02:04;;;;;;;1.70;1.50;;;1.90;98.20;;;;;;4981404;28;20465;-84
2024/01/15 16:04:31;;;;;;;1.60;1.40;;;1.90;98.20;;;;;;4983833;28;20486;-84
2024/01/15 16:06:59;;;;;;;1.60;1.40;;;1.90;98.20;;;;;;4971235;28;20484;-86
2024/01/15 16:09:27;;;;;;;1.60;1.40;;;1.80;98.20;;;;;;4980807;28;20535;-85
2024/01/15 16:12:21;;;;;;;1.60;1.40;;;1.80;98.20;;;;;;4977426;28;20478;-87
2024/01/15 16:15:04;;;;;;;1.70;1.50;;;1.80;98.20;;;;;;4894390;29;20881;-87
2024/01/15 16:17:37;;;;;;;1.63;1.40;;;1.80;98.20;;;;;;4963862;28;21020;-87
2024/01/15 16:23:49;;;;;;;;;;;;;;;;;;;;;
2024/01/15 17:53:14;;;;;;;1.67;1.50;;;1.20;98.20;;;;;;3212397;26;20548;-80
2024/01/15 17:55:41;;;;;;;1.60;1.40;;;1.30;98.20;;;;;;4946746;28;21735;-79
2024/01/15 17:58:13;;;;;;;1.67;1.40;;;1.30;98.20;;;;;;4960729;28;20475;-81
2024/01/15 18:00:43;;;;;;;1.70;1.50;;;1.30;98.20;;;;;;4958627;28;20474;-81
2024/01/15 18:03:10;;;;;;;1.60;1.40;;;1.40;98.20;;;;;;4957139;28;20494;-79
2024/01/15 18:05:49;;;;;;;1.70;1.50;;;1.40;98.20;;;;;;4956584;29;20777;-79
2024/01/15 18:08:23;;;;;;;1.67;1.50;;;1.40;98.20;;;;;;4955206;28;20470;-80
2024/01/15 18:11:18;;;;;;;1.70;1.50;;;1.40;98.20;;;;;;4956599;28;20925;-80
2024/01/15 18:13:45;;;;;;;1.70;1.60;;;1.40;98.20;;;;;;4955969;28;20523;-80
2024/01/15 18:16:14;;;;;;;1.63;1.40;;;1.40;98.20;;;;;;4957293;28;20498;-81
2024/01/15 18:18:44;;;;;;;1.63;1.50;;;1.50;98.20;;;;;;4954732;28;20463;-79
2024/01/15 18:21:23;;;;;;;1.67;1.50;;;1.40;98.20;;;;;;4957618;29;20466;-80
2024/01/15 18:24:02;;;;;;;2.20;2.00;;;1.50;98.20;;;;;;4955396;28;20470;-80
2024/01/15 18:26:59;;;;;;;1.70;1.50;;;1.50;98.20;;;;;;4958366;28;20555;-80
2024/01/15 18:29:32;;;;;;;1.70;1.50;;;1.50;98.20;;;;;;4946171;28;20474;-80
2024/01/15 18:32:09;;;;;;;1.80;1.70;;;1.50;98.20;;;;;;4946416;28;20463;-82
2024/01/15 18:34:36;;;;;;;1.67;1.50;;;1.50;98.20;;;;;;4956990;28;20501;-81
2024/01/15 18:37:04;;;;;;;1.60;1.40;;;1.50;98.20;;;;;;4956761;28;20486;-80
2024/01/15 18:39:34;;;;;;;5.90;5.43;;;1.50;98.20;;;;;;4956937;28;20513;-82
2024/01/15 18:42:07;;;;;;;1.67;1.50;;;1.50;98.20;;;;;;4950184;28;20478;-81
2024/01/15 18:44:34;;;;;;;2.10;1.90;;;1.50;98.20;;;;;;4956415;28;20470;-81
2024/01/15 18:47:02;;;;;;;1.70;1.50;;;1.50;98.20;;;;;;4958896;29;20482;-81
2024/01/15 18:49:32;;;;;;;1.63;1.50;;;1.50;98.20;;;;;;4957258;28;20470;-80
2024/01/15 18:52:00;;;;;;;1.70;1.60;;;1.50;98.20;;;;;;4956916;28;20787;-81
2024/01/15 18:54:34;;;;;;;1.67;1.40;;;1.40;98.20;;;;;;4955280;28;20522;-81
2024/01/15 18:57:06;;;;;;;1.63;1.40;;;1.40;98.20;;;;;;4956101;28;20486;-80
2024/01/15 18:59:35;;;;;;;1.70;1.50;;;1.30;98.20;;;;;;4956260;28;20482;-81
2024/01/15 19:02:02;;;;;;;1.63;1.40;;;1.30;98.20;;;;;;4955844;28;20467;-80
2024/01/15 19:04:31;;;;;;;1.63;1.40;;;1.20;98.20;;;;;;4955095;28;20475;-81
2024/01/15 19:06:58;;;;;;;1.70;1.43;;;1.20;98.20;;;;;;4955516;28;20490;-80
2024/01/15 19:09:26;;;;;;;1.63;1.40;;;1.20;98.20;;;;;;4952233;28;20766;-80
2024/01/15 19:12:12;;;;;;;1.67;1.47;;;1.20;98.20;;;;;;4955629;28;20545;-80
2024/01/15 19:17:33;;;;;;;1.70;1.40;;;1.20;98.20;;;;;;4949511;28;20467;-79
2024/01/15 19:20:02;;;;;;;1.67;1.47;;;1.10;98.20;;;;;;4952693;28;21996;-79
2024/01/15 19:22:29;;;;;;;1.63;1.40;;;1.10;98.20;;;;;;4955748;28;20467;-80
2024/01/15 19:25:02;;;;;;;1.67;1.40;;;1.10;98.20;;;;;;4953610;28;20542;-80
2024/01/15 19:27:30;;;;;;;1.70;1.60;;;1.10;98.20;;;;;;4954452;28;20483;-79
2024/01/15 19:29:57;;;;;;;1.70;1.50;;;1.10;98.20;;;;;;4946271;28;20471;-81